PRMRV SBBH-SBVC
Flight info
| Callsign | PRMRV |
|---|---|
| Flight time | 2h 29m |
| Altitude | 11000 |
| Route | ILPIR DCT UTLON DCT KUMIB |
| Aircraft | SR22/L-SDGRY/S |
Departure
| Time | 2026-05-08 14:10 |
|---|---|
| Airport | Pampulha - Carlos Drummond de Andrade Airport (SBBH) |
Arrival
| Time | 2026-05-08 16:40 |
|---|---|
| Airport | Glauber de Andrade Rocha Airport (SBVC) |
| Time | Latitude | Longitude | Altitude | Speed | Heading |
|---|---|---|---|---|---|
| 2026-05-08 14:10 | -19.87132 | -43.89148 | 7801 ft | 117 kts | 103° |
| 2026-05-08 14:10 | -19.87422 | -43.88343 | 8028 ft | 117 kts | 103° |
| 2026-05-08 14:11 | -19.87713 | -43.87537 | 8244 ft | 117 kts | 103° |
| 2026-05-08 14:11 | -19.88006 | -43.86725 | 8450 ft | 118 kts | 103° |
| 2026-05-08 14:11 | -19.88300 | -43.85909 | 8658 ft | 118 kts | 102° |
| 2026-05-08 14:11 | -19.88595 | -43.85091 | 8856 ft | 119 kts | 102° |
| 2026-05-08 14:12 | -19.88892 | -43.84267 | 9050 ft | 120 kts | 103° |
| 2026-05-08 14:12 | -19.89190 | -43.83443 | 9258 ft | 119 kts | 103° |
| 2026-05-08 14:12 | -19.89487 | -43.82618 | 9434 ft | 121 kts | 103° |
| 2026-05-08 14:12 | -19.89787 | -43.81787 | 9627 ft | 120 kts | 103° |
| 2026-05-08 14:13 | -19.90086 | -43.80956 | 9778 ft | 121 kts | 102° |
| 2026-05-08 14:13 | -19.90389 | -43.80117 | 9924 ft | 121 kts | 103° |
| 2026-05-08 14:13 | -19.90692 | -43.79275 | 10070 ft | 122 kts | 103° |
| 2026-05-08 14:13 | -19.90998 | -43.78427 | 10212 ft | 123 kts | 103° |
| 2026-05-08 14:14 | -19.91303 | -43.77580 | 10353 ft | 123 kts | 103° |
| 2026-05-08 14:14 | -19.91608 | -43.76734 | 10495 ft | 123 kts | 103° |
| 2026-05-08 14:14 | -19.91913 | -43.75887 | 10631 ft | 123 kts | 102° |
| 2026-05-08 14:14 | -19.92218 | -43.75039 | 10772 ft | 122 kts | 104° |
| 2026-05-08 14:15 | -19.92523 | -43.74193 | 10902 ft | 123 kts | 104° |
| 2026-05-08 14:15 | -19.92827 | -43.73346 | 11042 ft | 122 kts | 103° |
| 2026-05-08 14:15 | -19.92919 | -43.72492 | 11157 ft | 114 kts | 65° |
| 2026-05-08 14:15 | -19.92535 | -43.71773 | 11247 ft | 114 kts | 50° |
| 2026-05-08 14:16 | -19.92049 | -43.71070 | 11259 ft | 122 kts | 48° |
| 2026-05-08 14:16 | -19.91495 | -43.70340 | 11262 ft | 132 kts | 46° |
| 2026-05-08 14:16 | -19.90881 | -43.69568 | 11256 ft | 140 kts | 46° |
| 2026-05-08 14:16 | -19.90226 | -43.68764 | 11249 ft | 146 kts | 45° |
| 2026-05-08 14:17 | -19.89550 | -43.67941 | 11243 ft | 149 kts | 45° |
| 2026-05-08 14:17 | -19.88864 | -43.67111 | 11243 ft | 149 kts | 46° |
| 2026-05-08 14:17 | -19.88175 | -43.66279 | 11251 ft | 150 kts | 45° |
| 2026-05-08 14:17 | -19.87483 | -43.65444 | 11250 ft | 151 kts | 46° |
| 2026-05-08 14:18 | -19.86782 | -43.64598 | 11244 ft | 153 kts | 45° |
| 2026-05-08 14:18 | -19.86079 | -43.63750 | 11237 ft | 153 kts | 45° |
| 2026-05-08 14:18 | -19.85362 | -43.62915 | 11236 ft | 151 kts | 37° |
| 2026-05-08 14:18 | -19.84428 | -43.62426 | 11246 ft | 150 kts | 21° |
| 2026-05-08 14:19 | -19.83442 | -43.62035 | 11235 ft | 151 kts | 19° |
| 2026-05-08 14:19 | -19.82449 | -43.61667 | 11235 ft | 151 kts | 18° |
| 2026-05-08 14:19 | -19.81449 | -43.61307 | 11234 ft | 151 kts | 18° |
| 2026-05-08 14:19 | -19.80450 | -43.60952 | 11238 ft | 151 kts | 18° |
| 2026-05-08 14:20 | -19.79451 | -43.60598 | 11236 ft | 151 kts | 18° |
| 2026-05-08 14:20 | -19.78452 | -43.60246 | 11236 ft | 151 kts | 18° |
| 2026-05-08 14:20 | -19.77451 | -43.59893 | 11234 ft | 151 kts | 18° |
| 2026-05-08 14:20 | -19.76449 | -43.59539 | 11227 ft | 151 kts | 18° |
| 2026-05-08 14:21 | -19.75448 | -43.59186 | 11230 ft | 151 kts | 18° |
| 2026-05-08 14:21 | -19.74450 | -43.58835 | 11237 ft | 151 kts | 18° |
| 2026-05-08 14:21 | -19.73448 | -43.58482 | 11233 ft | 152 kts | 18° |
| 2026-05-08 14:21 | -19.72441 | -43.58127 | 11233 ft | 152 kts | 18° |
| 2026-05-08 14:22 | -19.71436 | -43.57773 | 11230 ft | 152 kts | 18° |
| 2026-05-08 14:22 | -19.70429 | -43.57419 | 11230 ft | 152 kts | 18° |
| 2026-05-08 14:22 | -19.69425 | -43.57065 | 11230 ft | 151 kts | 18° |
| 2026-05-08 14:22 | -19.68424 | -43.56713 | 11230 ft | 151 kts | 18° |
| 2026-05-08 14:23 | -19.67419 | -43.56359 | 11227 ft | 152 kts | 18° |
| 2026-05-08 14:23 | -19.66435 | -43.55952 | 11232 ft | 151 kts | 20° |
| 2026-05-08 14:23 | -19.65419 | -43.55657 | 11233 ft | 151 kts | 15° |
| 2026-05-08 14:23 | -19.64406 | -43.55356 | 11233 ft | 151 kts | 16° |
| 2026-05-08 14:24 | -19.63392 | -43.55041 | 11233 ft | 152 kts | 17° |
| 2026-05-08 14:24 | -19.62375 | -43.54719 | 11234 ft | 152 kts | 16° |
| 2026-05-08 14:24 | -19.61359 | -43.54395 | 11232 ft | 152 kts | 17° |
| 2026-05-08 14:24 | -19.60340 | -43.54069 | 11226 ft | 152 kts | 17° |
| 2026-05-08 14:25 | -19.59323 | -43.53744 | 11227 ft | 152 kts | 17° |
| 2026-05-08 14:25 | -19.58306 | -43.53418 | 11228 ft | 152 kts | 17° |
| 2026-05-08 14:25 | -19.57287 | -43.53092 | 11225 ft | 152 kts | 17° |
| 2026-05-08 14:25 | -19.56270 | -43.52767 | 11225 ft | 152 kts | 17° |
| 2026-05-08 14:26 | -19.55256 | -43.52443 | 11230 ft | 151 kts | 17° |
| 2026-05-08 14:26 | -19.54242 | -43.52119 | 11229 ft | 152 kts | 17° |
| 2026-05-08 14:26 | -19.53229 | -43.51795 | 11229 ft | 152 kts | 17° |
| 2026-05-08 14:26 | -19.52215 | -43.51471 | 11230 ft | 151 kts | 17° |
| 2026-05-08 14:27 | -19.51204 | -43.51147 | 11230 ft | 151 kts | 17° |
| 2026-05-08 14:27 | -19.50190 | -43.50823 | 11230 ft | 151 kts | 17° |
| 2026-05-08 14:27 | -19.49176 | -43.50499 | 11230 ft | 152 kts | 17° |
| 2026-05-08 14:27 | -19.48160 | -43.50174 | 11226 ft | 152 kts | 17° |
| 2026-05-08 14:28 | -19.47144 | -43.49849 | 11230 ft | 152 kts | 17° |
| 2026-05-08 14:28 | -19.46129 | -43.49524 | 11224 ft | 152 kts | 17° |
| 2026-05-08 14:28 | -19.45109 | -43.49198 | 11224 ft | 152 kts | 17° |
| 2026-05-08 14:28 | -19.44091 | -43.48873 | 11225 ft | 152 kts | 17° |
| 2026-05-08 14:29 | -19.43072 | -43.48547 | 11223 ft | 152 kts | 17° |
| 2026-05-08 14:29 | -19.42053 | -43.48221 | 11219 ft | 152 kts | 17° |
| 2026-05-08 14:29 | -19.41035 | -43.47896 | 11218 ft | 152 kts | 17° |
| 2026-05-08 14:29 | -19.40019 | -43.47571 | 11219 ft | 152 kts | 17° |
| 2026-05-08 14:30 | -19.39002 | -43.47247 | 11212 ft | 152 kts | 17° |
| 2026-05-08 14:30 | -19.37988 | -43.46923 | 11217 ft | 151 kts | 17° |
| 2026-05-08 14:30 | -19.36975 | -43.46599 | 11218 ft | 152 kts | 17° |
| 2026-05-08 14:30 | -19.35961 | -43.46275 | 11220 ft | 152 kts | 17° |
| 2026-05-08 14:31 | -19.34946 | -43.45951 | 11217 ft | 152 kts | 17° |
| 2026-05-08 14:31 | -19.33930 | -43.45627 | 11215 ft | 152 kts | 17° |
| 2026-05-08 14:31 | -19.32915 | -43.45303 | 11211 ft | 152 kts | 17° |
| 2026-05-08 14:32 | -19.30941 | -43.44532 | 11209 ft | 151 kts | 33° |
| 2026-05-08 14:32 | -19.30082 | -43.43881 | 11220 ft | 151 kts | 34° |
| 2026-05-08 14:32 | -19.29228 | -43.43221 | 11214 ft | 152 kts | 35° |
| 2026-05-08 14:32 | -19.28375 | -43.42555 | 11214 ft | 152 kts | 35° |
| 2026-05-08 14:33 | -19.27525 | -43.41887 | 11205 ft | 152 kts | 35° |
| 2026-05-08 14:33 | -19.26675 | -43.41215 | 11207 ft | 152 kts | 35° |
| 2026-05-08 14:33 | -19.25828 | -43.40545 | 11208 ft | 152 kts | 35° |
| 2026-05-08 14:33 | -19.24979 | -43.39872 | 11205 ft | 152 kts | 35° |
| 2026-05-08 14:34 | -19.24131 | -43.39199 | 11201 ft | 152 kts | 35° |
| 2026-05-08 14:34 | -19.23282 | -43.38524 | 11201 ft | 152 kts | 35° |
| 2026-05-08 14:34 | -19.22436 | -43.37852 | 11203 ft | 152 kts | 36° |
| 2026-05-08 14:34 | -19.21586 | -43.37177 | 11202 ft | 152 kts | 36° |
| 2026-05-08 14:35 | -19.20737 | -43.36502 | 11200 ft | 152 kts | 36° |
| 2026-05-08 14:35 | -19.19889 | -43.35829 | 11194 ft | 152 kts | 36° |
| 2026-05-08 14:35 | -19.19042 | -43.35155 | 11193 ft | 152 kts | 36° |
| 2026-05-08 14:35 | -19.18196 | -43.34484 | 11201 ft | 151 kts | 36° |
| 2026-05-08 14:36 | -19.17348 | -43.33809 | 11203 ft | 152 kts | 35° |
| 2026-05-08 14:36 | -19.16498 | -43.33135 | 11200 ft | 152 kts | 35° |
| 2026-05-08 14:36 | -19.15650 | -43.32460 | 11197 ft | 152 kts | 35° |
| 2026-05-08 14:36 | -19.14801 | -43.31786 | 11200 ft | 152 kts | 36° |
| 2026-05-08 14:37 | -19.13952 | -43.31112 | 11198 ft | 152 kts | 36° |
| 2026-05-08 14:37 | -19.13103 | -43.30438 | 11199 ft | 152 kts | 36° |
| 2026-05-08 14:37 | -19.12255 | -43.29765 | 11198 ft | 152 kts | 36° |
| 2026-05-08 14:37 | -19.11408 | -43.29092 | 11198 ft | 152 kts | 36° |
| 2026-05-08 14:38 | -19.10561 | -43.28420 | 11198 ft | 152 kts | 36° |
| 2026-05-08 14:38 | -19.09714 | -43.27748 | 11197 ft | 152 kts | 35° |
| 2026-05-08 14:38 | -19.08865 | -43.27074 | 11193 ft | 152 kts | 35° |
| 2026-05-08 14:38 | -19.08016 | -43.26401 | 11187 ft | 152 kts | 35° |
| 2026-05-08 14:39 | -19.07166 | -43.25727 | 11186 ft | 152 kts | 36° |
| 2026-05-08 14:39 | -19.06321 | -43.25056 | 11191 ft | 152 kts | 35° |
| 2026-05-08 14:39 | -19.05476 | -43.24386 | 11193 ft | 152 kts | 35° |
| 2026-05-08 14:39 | -19.04627 | -43.23713 | 11192 ft | 152 kts | 35° |
| 2026-05-08 14:40 | -19.03781 | -43.23042 | 11189 ft | 152 kts | 35° |
| 2026-05-08 14:40 | -19.02935 | -43.22371 | 11192 ft | 152 kts | 36° |
| 2026-05-08 14:40 | -19.02084 | -43.21697 | 11197 ft | 152 kts | 36° |
| 2026-05-08 14:40 | -19.01232 | -43.21022 | 11197 ft | 153 kts | 36° |
| 2026-05-08 14:41 | -19.00378 | -43.20345 | 11194 ft | 153 kts | 35° |
| 2026-05-08 14:41 | -18.99526 | -43.19670 | 11195 ft | 153 kts | 35° |
| 2026-05-08 14:41 | -18.98673 | -43.18994 | 11202 ft | 152 kts | 35° |
| 2026-05-08 14:41 | -18.97822 | -43.18320 | 11193 ft | 152 kts | 36° |
| 2026-05-08 14:42 | -18.96975 | -43.17649 | 11194 ft | 152 kts | 36° |
| 2026-05-08 14:42 | -18.96127 | -43.16978 | 11197 ft | 152 kts | 36° |
| 2026-05-08 14:42 | -18.95282 | -43.16308 | 11203 ft | 152 kts | 36° |
| 2026-05-08 14:42 | -18.94433 | -43.15637 | 11202 ft | 152 kts | 36° |
| 2026-05-08 14:43 | -18.93585 | -43.14965 | 11206 ft | 152 kts | 36° |
| 2026-05-08 14:43 | -18.92735 | -43.14293 | 11210 ft | 152 kts | 36° |
| 2026-05-08 14:43 | -18.91885 | -43.13620 | 11212 ft | 153 kts | 36° |
| 2026-05-08 14:43 | -18.91031 | -43.12944 | 11213 ft | 153 kts | 36° |
| 2026-05-08 14:44 | -18.90177 | -43.12268 | 11207 ft | 153 kts | 36° |
| 2026-05-08 14:44 | -18.89326 | -43.11595 | 11209 ft | 152 kts | 36° |
| 2026-05-08 14:44 | -18.88475 | -43.10922 | 11207 ft | 152 kts | 36° |
| 2026-05-08 14:44 | -18.87626 | -43.10250 | 11213 ft | 152 kts | 36° |
| 2026-05-08 14:45 | -18.86776 | -43.09578 | 11219 ft | 152 kts | 36° |
| 2026-05-08 14:45 | -18.85927 | -43.08906 | 11225 ft | 152 kts | 36° |
| 2026-05-08 14:45 | -18.85073 | -43.08232 | 11224 ft | 153 kts | 36° |
| 2026-05-08 14:45 | -18.84218 | -43.07556 | 11221 ft | 153 kts | 36° |
| 2026-05-08 14:46 | -18.83366 | -43.06882 | 11219 ft | 152 kts | 36° |
| 2026-05-08 14:46 | -18.82514 | -43.06209 | 11222 ft | 152 kts | 36° |
| 2026-05-08 14:46 | -18.81665 | -43.05538 | 11227 ft | 152 kts | 36° |
| 2026-05-08 14:46 | -18.80811 | -43.04864 | 11226 ft | 153 kts | 36° |
| 2026-05-08 14:47 | -18.79959 | -43.04190 | 11225 ft | 153 kts | 36° |
| 2026-05-08 14:47 | -18.79105 | -43.03516 | 11229 ft | 153 kts | 36° |
| 2026-05-08 14:47 | -18.78250 | -43.02841 | 11234 ft | 153 kts | 36° |
| 2026-05-08 14:47 | -18.77394 | -43.02165 | 11236 ft | 153 kts | 36° |
| 2026-05-08 14:48 | -18.76537 | -43.01488 | 11231 ft | 153 kts | 36° |
| 2026-05-08 14:48 | -18.75680 | -43.00812 | 11231 ft | 153 kts | 36° |
| 2026-05-08 14:48 | -18.74830 | -43.00140 | 11230 ft | 152 kts | 36° |
| 2026-05-08 14:48 | -18.73979 | -42.99469 | 11225 ft | 152 kts | 36° |
| 2026-05-08 14:49 | -18.73129 | -42.98798 | 11229 ft | 152 kts | 36° |
| 2026-05-08 14:49 | -18.72280 | -42.98128 | 11232 ft | 152 kts | 36° |
| 2026-05-08 14:49 | -18.71432 | -42.97459 | 11233 ft | 152 kts | 36° |
| 2026-05-08 14:49 | -18.70579 | -42.96786 | 11233 ft | 153 kts | 36° |
| 2026-05-08 14:50 | -18.69725 | -42.96112 | 11234 ft | 153 kts | 36° |
| 2026-05-08 14:50 | -18.68871 | -42.95439 | 11232 ft | 153 kts | 36° |
| 2026-05-08 14:50 | -18.68014 | -42.94763 | 11229 ft | 153 kts | 36° |
| 2026-05-08 14:50 | -18.67158 | -42.94088 | 11229 ft | 153 kts | 36° |
| 2026-05-08 14:51 | -18.66304 | -42.93415 | 11227 ft | 153 kts | 36° |
| 2026-05-08 14:51 | -18.65454 | -42.92745 | 11228 ft | 152 kts | 36° |
| 2026-05-08 14:51 | -18.64602 | -42.92074 | 11228 ft | 152 kts | 36° |
| 2026-05-08 14:51 | -18.63752 | -42.91404 | 11229 ft | 152 kts | 36° |
| 2026-05-08 14:52 | -18.62906 | -42.90737 | 11228 ft | 152 kts | 36° |
| 2026-05-08 14:52 | -18.61213 | -42.89404 | 11227 ft | 151 kts | 36° |
| 2026-05-08 14:52 | -18.60370 | -42.88739 | 11231 ft | 150 kts | 36° |
| 2026-05-08 14:53 | -18.59528 | -42.88077 | 11228 ft | 151 kts | 36° |
| 2026-05-08 14:53 | -18.58685 | -42.87412 | 11227 ft | 151 kts | 37° |
| 2026-05-08 14:53 | -18.57840 | -42.86747 | 11233 ft | 151 kts | 36° |
| 2026-05-08 14:53 | -18.56993 | -42.86080 | 11226 ft | 152 kts | 36° |
| 2026-05-08 14:54 | -18.56142 | -42.85411 | 11223 ft | 152 kts | 36° |
| 2026-05-08 14:54 | -18.55292 | -42.84742 | 11218 ft | 152 kts | 36° |
| 2026-05-08 14:54 | -18.54444 | -42.84074 | 11215 ft | 152 kts | 36° |
| 2026-05-08 14:54 | -18.53597 | -42.83408 | 11213 ft | 151 kts | 36° |
| 2026-05-08 14:55 | -18.52754 | -42.82744 | 11212 ft | 150 kts | 36° |
| 2026-05-08 14:55 | -18.51913 | -42.82083 | 11213 ft | 150 kts | 36° |
| 2026-05-08 14:55 | -18.51074 | -42.81423 | 11216 ft | 150 kts | 36° |
| 2026-05-08 14:55 | -18.50236 | -42.80764 | 11219 ft | 150 kts | 36° |
| 2026-05-08 14:56 | -18.49396 | -42.80103 | 11223 ft | 150 kts | 36° |
| 2026-05-08 14:56 | -18.48554 | -42.79442 | 11222 ft | 151 kts | 36° |
| 2026-05-08 14:56 | -18.47710 | -42.78778 | 11216 ft | 151 kts | 37° |
| 2026-05-08 14:56 | -18.46865 | -42.78114 | 11220 ft | 151 kts | 37° |
| 2026-05-08 14:57 | -18.46019 | -42.77449 | 11218 ft | 151 kts | 36° |
| 2026-05-08 14:57 | -18.45173 | -42.76784 | 11214 ft | 151 kts | 36° |
| 2026-05-08 14:57 | -18.44328 | -42.76120 | 11211 ft | 151 kts | 36° |
| 2026-05-08 14:57 | -18.43483 | -42.75457 | 11210 ft | 151 kts | 36° |
| 2026-05-08 14:58 | -18.42639 | -42.74793 | 11213 ft | 151 kts | 36° |
| 2026-05-08 14:58 | -18.41796 | -42.74131 | 11213 ft | 151 kts | 36° |
| 2026-05-08 14:58 | -18.40951 | -42.73467 | 11211 ft | 151 kts | 36° |
| 2026-05-08 14:58 | -18.40106 | -42.72804 | 11208 ft | 151 kts | 36° |
| 2026-05-08 14:59 | -18.39261 | -42.72141 | 11214 ft | 151 kts | 36° |
| 2026-05-08 14:59 | -18.37568 | -42.70811 | 11208 ft | 151 kts | 36° |
| 2026-05-08 14:59 | -18.36723 | -42.70148 | 11209 ft | 151 kts | 37° |
| 2026-05-08 15:00 | -18.35879 | -42.69486 | 11205 ft | 151 kts | 36° |
| 2026-05-08 15:00 | -18.35035 | -42.68824 | 11207 ft | 151 kts | 36° |
| 2026-05-08 15:00 | -18.34191 | -42.68161 | 11206 ft | 151 kts | 36° |
| 2026-05-08 15:00 | -18.33345 | -42.67498 | 11208 ft | 151 kts | 36° |
| 2026-05-08 15:01 | -18.32498 | -42.66834 | 11206 ft | 151 kts | 36° |
| 2026-05-08 15:01 | -18.31650 | -42.66169 | 11203 ft | 152 kts | 36° |
| 2026-05-08 15:01 | -18.30800 | -42.65502 | 11196 ft | 152 kts | 36° |
| 2026-05-08 15:01 | -18.29947 | -42.64834 | 11189 ft | 152 kts | 36° |
| 2026-05-08 15:02 | -18.29096 | -42.64166 | 11187 ft | 152 kts | 37° |
| 2026-05-08 15:02 | -18.28249 | -42.63502 | 11190 ft | 152 kts | 37° |
| 2026-05-08 15:02 | -18.27399 | -42.62836 | 11188 ft | 152 kts | 37° |
| 2026-05-08 15:02 | -18.26549 | -42.62169 | 11183 ft | 152 kts | 36° |
| 2026-05-08 15:03 | -18.25712 | -42.61514 | 11189 ft | 152 kts | 37° |
| 2026-05-08 15:03 | -18.24902 | -42.60879 | 11188 ft | 152 kts | 36° |
| 2026-05-08 15:03 | -18.24052 | -42.60213 | 11183 ft | 152 kts | 36° |
| 2026-05-08 15:03 | -18.23206 | -42.59550 | 11187 ft | 151 kts | 36° |
| 2026-05-08 15:04 | -18.22359 | -42.58888 | 11185 ft | 151 kts | 37° |
| 2026-05-08 15:04 | -18.21515 | -42.58227 | 11185 ft | 151 kts | 36° |
| 2026-05-08 15:04 | -18.20668 | -42.57563 | 11182 ft | 151 kts | 36° |
| 2026-05-08 15:04 | -18.19820 | -42.56899 | 11184 ft | 151 kts | 36° |
| 2026-05-08 15:05 | -18.18975 | -42.56237 | 11183 ft | 151 kts | 37° |
| 2026-05-08 15:05 | -18.18131 | -42.55577 | 11183 ft | 151 kts | 36° |
| 2026-05-08 15:05 | -18.17289 | -42.54918 | 11185 ft | 150 kts | 37° |
| 2026-05-08 15:05 | -18.16448 | -42.54260 | 11190 ft | 150 kts | 37° |
| 2026-05-08 15:06 | -18.15606 | -42.53601 | 11191 ft | 150 kts | 37° |
| 2026-05-08 15:06 | -18.14764 | -42.52942 | 11188 ft | 150 kts | 37° |
| 2026-05-08 15:06 | -18.13921 | -42.52283 | 11189 ft | 151 kts | 37° |
| 2026-05-08 15:06 | -18.13076 | -42.51623 | 11185 ft | 151 kts | 37° |
| 2026-05-08 15:07 | -18.12233 | -42.50963 | 11183 ft | 151 kts | 37° |
| 2026-05-08 15:07 | -18.11391 | -42.50305 | 11181 ft | 151 kts | 37° |
| 2026-05-08 15:07 | -18.10547 | -42.49645 | 11178 ft | 151 kts | 37° |
| 2026-05-08 15:07 | -18.09703 | -42.48985 | 11183 ft | 150 kts | 37° |
| 2026-05-08 15:08 | -18.08859 | -42.48325 | 11181 ft | 150 kts | 37° |
| 2026-05-08 15:08 | -18.08298 | -42.47886 | 11179 ft | 150 kts | 37° |
| 2026-05-08 15:08 | -18.07175 | -42.47009 | 11183 ft | 150 kts | 37° |
| 2026-05-08 15:08 | -18.06331 | -42.46349 | 11181 ft | 151 kts | 36° |
| 2026-05-08 15:09 | -18.05486 | -42.45690 | 11185 ft | 151 kts | 37° |
| 2026-05-08 15:09 | -18.04640 | -42.45028 | 11180 ft | 151 kts | 37° |
| 2026-05-08 15:09 | -18.03790 | -42.44365 | 11178 ft | 151 kts | 37° |
| 2026-05-08 15:09 | -18.02945 | -42.43705 | 11174 ft | 151 kts | 37° |
| 2026-05-08 15:10 | -18.02100 | -42.43045 | 11178 ft | 151 kts | 37° |
| 2026-05-08 15:10 | -18.01254 | -42.42384 | 11181 ft | 151 kts | 37° |
| 2026-05-08 15:10 | -18.00410 | -42.41725 | 11172 ft | 151 kts | 37° |
| 2026-05-08 15:10 | -17.99568 | -42.41068 | 11172 ft | 150 kts | 37° |
| 2026-05-08 15:11 | -17.98727 | -42.40412 | 11174 ft | 150 kts | 37° |
| 2026-05-08 15:11 | -17.97887 | -42.39756 | 11173 ft | 150 kts | 37° |
| 2026-05-08 15:11 | -17.97049 | -42.39102 | 11176 ft | 150 kts | 37° |
| 2026-05-08 15:11 | -17.96208 | -42.38446 | 11181 ft | 150 kts | 37° |
| 2026-05-08 15:12 | -17.95366 | -42.37789 | 11183 ft | 150 kts | 37° |
| 2026-05-08 15:12 | -17.94523 | -42.37132 | 11183 ft | 151 kts | 37° |
| 2026-05-08 15:12 | -17.93680 | -42.36474 | 11182 ft | 150 kts | 37° |
| 2026-05-08 15:12 | -17.92836 | -42.35816 | 11184 ft | 150 kts | 37° |
| 2026-05-08 15:13 | -17.91993 | -42.35159 | 11187 ft | 150 kts | 37° |
| 2026-05-08 15:13 | -17.91148 | -42.34500 | 11189 ft | 151 kts | 37° |
| 2026-05-08 15:13 | -17.90299 | -42.33838 | 11189 ft | 152 kts | 36° |
| 2026-05-08 15:13 | -17.89448 | -42.33175 | 11192 ft | 152 kts | 36° |
| 2026-05-08 15:14 | -17.88592 | -42.32507 | 11191 ft | 153 kts | 37° |
| 2026-05-08 15:14 | -17.87733 | -42.31839 | 11193 ft | 154 kts | 36° |
| 2026-05-08 15:14 | -17.86872 | -42.31168 | 11193 ft | 154 kts | 36° |
| 2026-05-08 15:14 | -17.86009 | -42.30495 | 11194 ft | 154 kts | 36° |
| 2026-05-08 15:15 | -17.85142 | -42.29819 | 11194 ft | 155 kts | 36° |
| 2026-05-08 15:15 | -17.84277 | -42.29146 | 11189 ft | 154 kts | 36° |
| 2026-05-08 15:15 | -17.83415 | -42.28475 | 11191 ft | 154 kts | 36° |
| 2026-05-08 15:15 | -17.82552 | -42.27802 | 11198 ft | 154 kts | 36° |
| 2026-05-08 15:16 | -17.81689 | -42.27131 | 11201 ft | 154 kts | 36° |
| 2026-05-08 15:16 | -17.80825 | -42.26458 | 11204 ft | 154 kts | 37° |
| 2026-05-08 15:16 | -17.79960 | -42.25784 | 11205 ft | 154 kts | 36° |
| 2026-05-08 15:16 | -17.79094 | -42.25111 | 11202 ft | 154 kts | 36° |
| 2026-05-08 15:17 | -17.78230 | -42.24438 | 11204 ft | 154 kts | 36° |
| 2026-05-08 15:17 | -17.77367 | -42.23766 | 11201 ft | 154 kts | 37° |
| 2026-05-08 15:17 | -17.76504 | -42.23095 | 11202 ft | 153 kts | 36° |
| 2026-05-08 15:17 | -17.75646 | -42.22428 | 11200 ft | 153 kts | 37° |
| 2026-05-08 15:18 | -17.74791 | -42.21763 | 11203 ft | 153 kts | 37° |
| 2026-05-08 15:18 | -17.73938 | -42.21099 | 11205 ft | 152 kts | 37° |
| 2026-05-08 15:18 | -17.73085 | -42.20436 | 11208 ft | 152 kts | 37° |
| 2026-05-08 15:18 | -17.72232 | -42.19773 | 11206 ft | 152 kts | 37° |
| 2026-05-08 15:19 | -17.71378 | -42.19109 | 11204 ft | 152 kts | 37° |
| 2026-05-08 15:19 | -17.70525 | -42.18446 | 11204 ft | 152 kts | 37° |
| 2026-05-08 15:19 | -17.69671 | -42.17782 | 11203 ft | 152 kts | 37° |
| 2026-05-08 15:19 | -17.68819 | -42.17120 | 11204 ft | 152 kts | 37° |
| 2026-05-08 15:20 | -17.67965 | -42.16457 | 11202 ft | 152 kts | 37° |
| 2026-05-08 15:20 | -17.67112 | -42.15794 | 11204 ft | 152 kts | 37° |
| 2026-05-08 15:20 | -17.66260 | -42.15131 | 11205 ft | 152 kts | 36° |
| 2026-05-08 15:20 | -17.65406 | -42.14468 | 11206 ft | 152 kts | 36° |
| 2026-05-08 15:21 | -17.64553 | -42.13806 | 11206 ft | 152 kts | 36° |
| 2026-05-08 15:21 | -17.63699 | -42.13142 | 11201 ft | 152 kts | 36° |
| 2026-05-08 15:21 | -17.62845 | -42.12479 | 11198 ft | 152 kts | 37° |
| 2026-05-08 15:21 | -17.61991 | -42.11816 | 11196 ft | 152 kts | 37° |
| 2026-05-08 15:22 | -17.61136 | -42.11153 | 11197 ft | 152 kts | 37° |
| 2026-05-08 15:22 | -17.60282 | -42.10490 | 11197 ft | 152 kts | 37° |
| 2026-05-08 15:22 | -17.59431 | -42.09829 | 11191 ft | 152 kts | 37° |
| 2026-05-08 15:22 | -17.58578 | -42.09167 | 11197 ft | 152 kts | 37° |
| 2026-05-08 15:23 | -17.57725 | -42.08505 | 11195 ft | 152 kts | 37° |
| 2026-05-08 15:23 | -17.56872 | -42.07843 | 11193 ft | 153 kts | 36° |
| 2026-05-08 15:23 | -17.56016 | -42.07179 | 11186 ft | 152 kts | 37° |
| 2026-05-08 15:23 | -17.55163 | -42.06517 | 11189 ft | 152 kts | 37° |
| 2026-05-08 15:24 | -17.54309 | -42.05855 | 11187 ft | 152 kts | 36° |
| 2026-05-08 15:24 | -17.53454 | -42.05193 | 11184 ft | 153 kts | 36° |
| 2026-05-08 15:24 | -17.52596 | -42.04527 | 11184 ft | 153 kts | 37° |
| 2026-05-08 15:24 | -17.51739 | -42.03862 | 11184 ft | 153 kts | 37° |
| 2026-05-08 15:25 | -17.50884 | -42.03200 | 11183 ft | 153 kts | 37° |
| 2026-05-08 15:25 | -17.50028 | -42.02536 | 11185 ft | 152 kts | 37° |
| 2026-05-08 15:25 | -17.49174 | -42.01875 | 11183 ft | 152 kts | 37° |
| 2026-05-08 15:25 | -17.48320 | -42.01213 | 11187 ft | 152 kts | 37° |
| 2026-05-08 15:26 | -17.47467 | -42.00551 | 11188 ft | 152 kts | 37° |
| 2026-05-08 15:26 | -17.46613 | -41.99890 | 11181 ft | 153 kts | 37° |
| 2026-05-08 15:26 | -17.45757 | -41.99227 | 11170 ft | 153 kts | 37° |
| 2026-05-08 15:26 | -17.44901 | -41.98564 | 11172 ft | 152 kts | 37° |
| 2026-05-08 15:27 | -17.44047 | -41.97902 | 11169 ft | 152 kts | 37° |
| 2026-05-08 15:27 | -17.43194 | -41.97242 | 11171 ft | 152 kts | 37° |
| 2026-05-08 15:27 | -17.42339 | -41.96580 | 11172 ft | 152 kts | 37° |
| 2026-05-08 15:27 | -17.41488 | -41.95921 | 11166 ft | 152 kts | 37° |
| 2026-05-08 15:28 | -17.40636 | -41.95261 | 11164 ft | 152 kts | 37° |
| 2026-05-08 15:28 | -17.39787 | -41.94604 | 11163 ft | 151 kts | 37° |
| 2026-05-08 15:28 | -17.38940 | -41.93949 | 11166 ft | 151 kts | 37° |
| 2026-05-08 15:28 | -17.38090 | -41.93291 | 11169 ft | 151 kts | 37° |
| 2026-05-08 15:29 | -17.37240 | -41.92634 | 11167 ft | 152 kts | 37° |
| 2026-05-08 15:29 | -17.36389 | -41.91975 | 11166 ft | 152 kts | 37° |
| 2026-05-08 15:29 | -17.35535 | -41.91315 | 11163 ft | 152 kts | 37° |
| 2026-05-08 15:29 | -17.34682 | -41.90655 | 11171 ft | 152 kts | 37° |
| 2026-05-08 15:30 | -17.33827 | -41.89993 | 11166 ft | 152 kts | 37° |
| 2026-05-08 15:30 | -17.32973 | -41.89333 | 11166 ft | 152 kts | 37° |
| 2026-05-08 15:30 | -17.32118 | -41.88672 | 11166 ft | 152 kts | 37° |
| 2026-05-08 15:30 | -17.31266 | -41.88014 | 11168 ft | 152 kts | 37° |
| 2026-05-08 15:31 | -17.30416 | -41.87356 | 11168 ft | 152 kts | 37° |
| 2026-05-08 15:31 | -17.29563 | -41.86697 | 11167 ft | 152 kts | 37° |
| 2026-05-08 15:31 | -17.28711 | -41.86039 | 11171 ft | 152 kts | 37° |
| 2026-05-08 15:31 | -17.27857 | -41.85378 | 11168 ft | 152 kts | 37° |
| 2026-05-08 15:32 | -17.27007 | -41.84722 | 11170 ft | 152 kts | 37° |
| 2026-05-08 15:32 | -17.26156 | -41.84064 | 11169 ft | 152 kts | 37° |
| 2026-05-08 15:32 | -17.25304 | -41.83406 | 11171 ft | 152 kts | 37° |
| 2026-05-08 15:32 | -17.24451 | -41.82747 | 11173 ft | 152 kts | 37° |
| 2026-05-08 15:33 | -17.23598 | -41.82089 | 11172 ft | 152 kts | 37° |
| 2026-05-08 15:33 | -17.22747 | -41.81432 | 11171 ft | 152 kts | 37° |
| 2026-05-08 15:33 | -17.21894 | -41.80773 | 11174 ft | 152 kts | 37° |
| 2026-05-08 15:33 | -17.21043 | -41.80116 | 11174 ft | 151 kts | 37° |
| 2026-05-08 15:34 | -17.20194 | -41.79461 | 11174 ft | 151 kts | 37° |
| 2026-05-08 15:34 | -17.19344 | -41.78805 | 11177 ft | 151 kts | 37° |
| 2026-05-08 15:34 | -17.18492 | -41.78147 | 11175 ft | 151 kts | 37° |
| 2026-05-08 15:34 | -17.17642 | -41.77491 | 11175 ft | 151 kts | 37° |
| 2026-05-08 15:35 | -17.16792 | -41.76836 | 11173 ft | 152 kts | 37° |
| 2026-05-08 15:35 | -17.15939 | -41.76177 | 11178 ft | 152 kts | 37° |
| 2026-05-08 15:35 | -17.15087 | -41.75520 | 11176 ft | 152 kts | 37° |
| 2026-05-08 15:35 | -17.14235 | -41.74863 | 11173 ft | 151 kts | 37° |
| 2026-05-08 15:36 | -17.13386 | -41.74208 | 11174 ft | 151 kts | 37° |
| 2026-05-08 15:36 | -17.12535 | -41.73552 | 11173 ft | 151 kts | 37° |
| 2026-05-08 15:36 | -17.11684 | -41.72896 | 11174 ft | 151 kts | 37° |
| 2026-05-08 15:36 | -17.10833 | -41.72240 | 11176 ft | 152 kts | 37° |
| 2026-05-08 15:37 | -17.09981 | -41.71583 | 11173 ft | 152 kts | 37° |
| 2026-05-08 15:37 | -17.09130 | -41.70927 | 11173 ft | 151 kts | 37° |
| 2026-05-08 15:37 | -17.08281 | -41.70273 | 11171 ft | 151 kts | 37° |
| 2026-05-08 15:37 | -17.07432 | -41.69619 | 11168 ft | 151 kts | 37° |
| 2026-05-08 15:38 | -17.06586 | -41.68967 | 11169 ft | 151 kts | 37° |
| 2026-05-08 15:38 | -17.05739 | -41.68314 | 11168 ft | 151 kts | 37° |
| 2026-05-08 15:38 | -17.04892 | -41.67662 | 11166 ft | 151 kts | 37° |
| 2026-05-08 15:38 | -17.04044 | -41.67009 | 11168 ft | 151 kts | 37° |
| 2026-05-08 15:39 | -17.03195 | -41.66355 | 11166 ft | 151 kts | 37° |
| 2026-05-08 15:39 | -17.02346 | -41.65701 | 11164 ft | 151 kts | 37° |
| 2026-05-08 15:39 | -17.01498 | -41.65049 | 11163 ft | 151 kts | 37° |
| 2026-05-08 15:39 | -17.00652 | -41.64397 | 11163 ft | 150 kts | 37° |
| 2026-05-08 15:40 | -16.99806 | -41.63746 | 11166 ft | 151 kts | 37° |
| 2026-05-08 15:40 | -16.98959 | -41.63094 | 11161 ft | 151 kts | 37° |
| 2026-05-08 15:40 | -16.98112 | -41.62442 | 11161 ft | 151 kts | 37° |
| 2026-05-08 15:40 | -16.97266 | -41.61791 | 11159 ft | 151 kts | 37° |
| 2026-05-08 15:41 | -16.96420 | -41.61140 | 11159 ft | 151 kts | 37° |
| 2026-05-08 15:41 | -16.95572 | -41.60488 | 11158 ft | 151 kts | 37° |
| 2026-05-08 15:41 | -16.94726 | -41.59837 | 11158 ft | 150 kts | 37° |
| 2026-05-08 15:41 | -16.93881 | -41.59187 | 11151 ft | 151 kts | 38° |
| 2026-05-08 15:42 | -16.93034 | -41.58536 | 11152 ft | 150 kts | 37° |
| 2026-05-08 15:42 | -16.92190 | -41.57887 | 11150 ft | 150 kts | 37° |
| 2026-05-08 15:42 | -16.91343 | -41.57235 | 11154 ft | 151 kts | 37° |
| 2026-05-08 15:42 | -16.90497 | -41.56585 | 11154 ft | 151 kts | 37° |
| 2026-05-08 15:43 | -16.89648 | -41.55932 | 11148 ft | 151 kts | 37° |
| 2026-05-08 15:43 | -16.88796 | -41.55278 | 11149 ft | 151 kts | 37° |
| 2026-05-08 15:43 | -16.87947 | -41.54625 | 11148 ft | 150 kts | 37° |
| 2026-05-08 15:43 | -16.87102 | -41.53975 | 11144 ft | 151 kts | 37° |
| 2026-05-08 15:44 | -16.86255 | -41.53325 | 11150 ft | 151 kts | 37° |
| 2026-05-08 15:44 | -16.85404 | -41.52671 | 11149 ft | 152 kts | 37° |
| 2026-05-08 15:44 | -16.84550 | -41.52015 | 11148 ft | 152 kts | 37° |
| 2026-05-08 15:44 | -16.83696 | -41.51359 | 11148 ft | 152 kts | 37° |
| 2026-05-08 15:45 | -16.82839 | -41.50701 | 11143 ft | 153 kts | 37° |
| 2026-05-08 15:45 | -16.81982 | -41.50043 | 11133 ft | 152 kts | 37° |
| 2026-05-08 15:45 | -16.81126 | -41.49386 | 11142 ft | 152 kts | 37° |
| 2026-05-08 15:45 | -16.80271 | -41.48729 | 11142 ft | 152 kts | 37° |
| 2026-05-08 15:46 | -16.79415 | -41.48072 | 11146 ft | 152 kts | 37° |
| 2026-05-08 15:46 | -16.78559 | -41.47415 | 11143 ft | 152 kts | 37° |
| 2026-05-08 15:46 | -16.77706 | -41.46760 | 11148 ft | 152 kts | 37° |
| 2026-05-08 15:46 | -16.76854 | -41.46106 | 11145 ft | 152 kts | 37° |
| 2026-05-08 15:47 | -16.76000 | -41.45451 | 11138 ft | 152 kts | 37° |
| 2026-05-08 15:47 | -16.75149 | -41.44798 | 11143 ft | 151 kts | 37° |
| 2026-05-08 15:47 | -16.74297 | -41.44145 | 11140 ft | 151 kts | 37° |
| 2026-05-08 15:47 | -16.73448 | -41.43493 | 11145 ft | 151 kts | 37° |
| 2026-05-08 15:48 | -16.71744 | -41.42187 | 11144 ft | 151 kts | 37° |
| 2026-05-08 15:48 | -16.70893 | -41.41534 | 11143 ft | 152 kts | 37° |
| 2026-05-08 15:48 | -16.70038 | -41.40882 | 11139 ft | 152 kts | 34° |
| 2026-05-08 15:49 | -16.69039 | -41.40514 | 11142 ft | 153 kts | 17° |
| 2026-05-08 15:49 | -16.68000 | -41.40245 | 11141 ft | 153 kts | 17° |
| 2026-05-08 15:49 | -16.66958 | -41.39985 | 11134 ft | 153 kts | 16° |
| 2026-05-08 15:49 | -16.65915 | -41.39731 | 11136 ft | 153 kts | 15° |
| 2026-05-08 15:50 | -16.64874 | -41.39480 | 11130 ft | 153 kts | 16° |
| 2026-05-08 15:50 | -16.63832 | -41.39233 | 11129 ft | 153 kts | 16° |
| 2026-05-08 15:50 | -16.62790 | -41.38987 | 11127 ft | 153 kts | 15° |
| 2026-05-08 15:50 | -16.61750 | -41.38742 | 11123 ft | 153 kts | 15° |
| 2026-05-08 15:51 | -16.60708 | -41.38498 | 11130 ft | 153 kts | 15° |
| 2026-05-08 15:51 | -16.59663 | -41.38253 | 11131 ft | 153 kts | 15° |
| 2026-05-08 15:51 | -16.58618 | -41.38009 | 11126 ft | 154 kts | 15° |
| 2026-05-08 15:51 | -16.57567 | -41.37763 | 11126 ft | 154 kts | 15° |
| 2026-05-08 15:52 | -16.56517 | -41.37518 | 11119 ft | 154 kts | 15° |
| 2026-05-08 15:52 | -16.55473 | -41.37274 | 11115 ft | 153 kts | 15° |
| 2026-05-08 15:52 | -16.54430 | -41.37031 | 11113 ft | 152 kts | 15° |
| 2026-05-08 15:52 | -16.53391 | -41.36788 | 11117 ft | 152 kts | 15° |
| 2026-05-08 15:53 | -16.52352 | -41.36546 | 11117 ft | 152 kts | 15° |
| 2026-05-08 15:53 | -16.51308 | -41.36303 | 11111 ft | 153 kts | 15° |
| 2026-05-08 15:53 | -16.50268 | -41.36060 | 11111 ft | 153 kts | 15° |
| 2026-05-08 15:53 | -16.49224 | -41.35817 | 11112 ft | 153 kts | 15° |
| 2026-05-08 15:54 | -16.48182 | -41.35574 | 11113 ft | 153 kts | 15° |
| 2026-05-08 15:54 | -16.47136 | -41.35330 | 11118 ft | 153 kts | 15° |
| 2026-05-08 15:54 | -16.46086 | -41.35085 | 11122 ft | 154 kts | 15° |
| 2026-05-08 15:54 | -16.45036 | -41.34841 | 11119 ft | 154 kts | 15° |
| 2026-05-08 15:55 | -16.43984 | -41.34595 | 11125 ft | 154 kts | 15° |
| 2026-05-08 15:55 | -16.41878 | -41.34105 | 11126 ft | 154 kts | 15° |
| 2026-05-08 15:55 | -16.40824 | -41.33859 | 11130 ft | 155 kts | 15° |
| 2026-05-08 15:56 | -16.39770 | -41.33614 | 11136 ft | 155 kts | 15° |
| 2026-05-08 15:56 | -16.38713 | -41.33368 | 11137 ft | 155 kts | 15° |
| 2026-05-08 15:56 | -16.37656 | -41.33121 | 11136 ft | 155 kts | 15° |
| 2026-05-08 15:56 | -16.36602 | -41.32876 | 11136 ft | 155 kts | 15° |
| 2026-05-08 15:57 | -16.35545 | -41.32630 | 11134 ft | 155 kts | 15° |
| 2026-05-08 15:57 | -16.34490 | -41.32384 | 11137 ft | 154 kts | 15° |
| 2026-05-08 15:57 | -16.33438 | -41.32139 | 11139 ft | 154 kts | 15° |
| 2026-05-08 15:57 | -16.32385 | -41.31894 | 11142 ft | 155 kts | 15° |
| 2026-05-08 15:58 | -16.31326 | -41.31648 | 11145 ft | 155 kts | 15° |
| 2026-05-08 15:58 | -16.30268 | -41.31402 | 11143 ft | 155 kts | 15° |
| 2026-05-08 15:58 | -16.29211 | -41.31156 | 11149 ft | 155 kts | 15° |
| 2026-05-08 15:58 | -16.28154 | -41.30910 | 11150 ft | 155 kts | 16° |
| 2026-05-08 15:59 | -16.27098 | -41.30664 | 11150 ft | 155 kts | 15° |
| 2026-05-08 15:59 | -16.26043 | -41.30419 | 11157 ft | 154 kts | 15° |
| 2026-05-08 15:59 | -16.24991 | -41.30174 | 11152 ft | 154 kts | 15° |
| 2026-05-08 15:59 | -16.23938 | -41.29930 | 11150 ft | 154 kts | 15° |
| 2026-05-08 16:00 | -16.22889 | -41.29685 | 11154 ft | 154 kts | 15° |
| 2026-05-08 16:00 | -16.21839 | -41.29442 | 11159 ft | 154 kts | 15° |
| 2026-05-08 16:00 | -16.20788 | -41.29197 | 11158 ft | 154 kts | 15° |
| 2026-05-08 16:00 | -16.19735 | -41.28952 | 11157 ft | 154 kts | 15° |
| 2026-05-08 16:01 | -16.18680 | -41.28707 | 11157 ft | 155 kts | 15° |
| 2026-05-08 16:01 | -16.17624 | -41.28462 | 11153 ft | 155 kts | 15° |
| 2026-05-08 16:01 | -16.16569 | -41.28217 | 11156 ft | 154 kts | 15° |
| 2026-05-08 16:01 | -16.15515 | -41.27972 | 11156 ft | 155 kts | 15° |
| 2026-05-08 16:02 | -16.14460 | -41.27727 | 11159 ft | 154 kts | 15° |
| 2026-05-08 16:02 | -16.13405 | -41.27482 | 11159 ft | 155 kts | 15° |
| 2026-05-08 16:02 | -16.12351 | -41.27237 | 11160 ft | 155 kts | 15° |
| 2026-05-08 16:02 | -16.11297 | -41.26992 | 11162 ft | 154 kts | 15° |
| 2026-05-08 16:03 | -16.10243 | -41.26747 | 11164 ft | 154 kts | 15° |
| 2026-05-08 16:03 | -16.09187 | -41.26502 | 11159 ft | 155 kts | 15° |
| 2026-05-08 16:03 | -16.08131 | -41.26257 | 11160 ft | 155 kts | 14° |
| 2026-05-08 16:03 | -16.07071 | -41.26011 | 11160 ft | 155 kts | 15° |
| 2026-05-08 16:04 | -16.06015 | -41.25766 | 11158 ft | 155 kts | 15° |
| 2026-05-08 16:04 | -16.04956 | -41.25520 | 11158 ft | 155 kts | 15° |
| 2026-05-08 16:04 | -16.03895 | -41.25274 | 11151 ft | 156 kts | 15° |
| 2026-05-08 16:04 | -16.02833 | -41.25028 | 11151 ft | 156 kts | 14° |
| 2026-05-08 16:05 | -16.01773 | -41.24782 | 11148 ft | 156 kts | 15° |
| 2026-05-08 16:05 | -16.00711 | -41.24535 | 11149 ft | 155 kts | 15° |
| 2026-05-08 16:05 | -15.99653 | -41.24290 | 11151 ft | 155 kts | 15° |
| 2026-05-08 16:05 | -15.98596 | -41.24045 | 11156 ft | 155 kts | 15° |
| 2026-05-08 16:06 | -15.97541 | -41.23800 | 11154 ft | 155 kts | 15° |
| 2026-05-08 16:06 | -15.96486 | -41.23556 | 11157 ft | 154 kts | 15° |
| 2026-05-08 16:06 | -15.95433 | -41.23311 | 11157 ft | 154 kts | 15° |
| 2026-05-08 16:06 | -15.94376 | -41.23066 | 11157 ft | 155 kts | 15° |
| 2026-05-08 16:07 | -15.93327 | -41.22823 | 11157 ft | 155 kts | 14° |
| 2026-05-08 16:07 | -15.92273 | -41.22579 | 11158 ft | 155 kts | 14° |
| 2026-05-08 16:07 | -15.91215 | -41.22334 | 11160 ft | 155 kts | 14° |
| 2026-05-08 16:07 | -15.90158 | -41.22089 | 11160 ft | 155 kts | 15° |
| 2026-05-08 16:08 | -15.89099 | -41.21843 | 11162 ft | 155 kts | 15° |
| 2026-05-08 16:08 | -15.88037 | -41.21597 | 11164 ft | 155 kts | 15° |
| 2026-05-08 16:08 | -15.86976 | -41.21352 | 11165 ft | 156 kts | 15° |
| 2026-05-08 16:08 | -15.85914 | -41.21106 | 11167 ft | 156 kts | 15° |
| 2026-05-08 16:09 | -15.84852 | -41.20860 | 11165 ft | 155 kts | 15° |
| 2026-05-08 16:09 | -15.83793 | -41.20615 | 11166 ft | 155 kts | 15° |
| 2026-05-08 16:09 | -15.82734 | -41.20369 | 11165 ft | 155 kts | 15° |
| 2026-05-08 16:09 | -15.81674 | -41.20124 | 11166 ft | 155 kts | 15° |
| 2026-05-08 16:10 | -15.80615 | -41.19879 | 11167 ft | 156 kts | 15° |
| 2026-05-08 16:10 | -15.79551 | -41.19633 | 11169 ft | 156 kts | 15° |
| 2026-05-08 16:10 | -15.78487 | -41.19386 | 11169 ft | 156 kts | 15° |
| 2026-05-08 16:10 | -15.77424 | -41.19140 | 11168 ft | 156 kts | 15° |
| 2026-05-08 16:11 | -15.76353 | -41.18893 | 11170 ft | 156 kts | 15° |
| 2026-05-08 16:11 | -15.75288 | -41.18646 | 11167 ft | 156 kts | 15° |
| 2026-05-08 16:11 | -15.74222 | -41.18399 | 11164 ft | 156 kts | 15° |
| 2026-05-08 16:11 | -15.73159 | -41.18154 | 11164 ft | 156 kts | 15° |
| 2026-05-08 16:12 | -15.72097 | -41.17908 | 11162 ft | 155 kts | 15° |
| 2026-05-08 16:12 | -15.71037 | -41.17663 | 11161 ft | 155 kts | 15° |
| 2026-05-08 16:12 | -15.69981 | -41.17419 | 11161 ft | 155 kts | 15° |
| 2026-05-08 16:12 | -15.68924 | -41.17174 | 11159 ft | 155 kts | 15° |
| 2026-05-08 16:13 | -15.67870 | -41.16930 | 11158 ft | 155 kts | 15° |
| 2026-05-08 16:13 | -15.66810 | -41.16686 | 11158 ft | 155 kts | 15° |
| 2026-05-08 16:13 | -15.65751 | -41.16441 | 11157 ft | 155 kts | 15° |
| 2026-05-08 16:13 | -15.64692 | -41.16196 | 11154 ft | 156 kts | 15° |
| 2026-05-08 16:14 | -15.63631 | -41.15951 | 11153 ft | 155 kts | 15° |
| 2026-05-08 16:14 | -15.62570 | -41.15706 | 11152 ft | 155 kts | 15° |
| 2026-05-08 16:14 | -15.61513 | -41.15461 | 11151 ft | 156 kts | 15° |
| 2026-05-08 16:15 | -15.60482 | -41.15223 | 11150 ft | 156 kts | 15° |
| 2026-05-08 16:15 | -15.59418 | -41.14977 | 11152 ft | 156 kts | 15° |
| 2026-05-08 16:16 | -15.58359 | -41.14733 | 11151 ft | 155 kts | 15° |
| 2026-05-08 16:16 | -15.57299 | -41.14488 | 11150 ft | 155 kts | 15° |
| 2026-05-08 16:16 | -15.56236 | -41.14243 | 11146 ft | 155 kts | 15° |
| 2026-05-08 16:16 | -15.55175 | -41.14001 | 11146 ft | 155 kts | 13° |
| 2026-05-08 16:17 | -15.54088 | -41.13915 | 11146 ft | 157 kts | 6° |
| 2026-05-08 16:17 | -15.53358 | -41.13880 | 11141 ft | 157 kts | 5° |
| 2026-05-08 16:17 | -15.51892 | -41.13822 | 11144 ft | 157 kts | 5° |
| 2026-05-08 16:17 | -15.50794 | -41.13785 | 11140 ft | 157 kts | 5° |
| 2026-05-08 16:18 | -15.49694 | -41.13752 | 11142 ft | 157 kts | 5° |
| 2026-05-08 16:18 | -15.48593 | -41.13721 | 11146 ft | 158 kts | 5° |
| 2026-05-08 16:18 | -15.47490 | -41.13692 | 11146 ft | 158 kts | 4° |
| 2026-05-08 16:18 | -15.46387 | -41.13663 | 11148 ft | 158 kts | 5° |
| 2026-05-08 16:19 | -15.45284 | -41.13635 | 11148 ft | 158 kts | 5° |
| 2026-05-08 16:19 | -15.44181 | -41.13608 | 11148 ft | 158 kts | 5° |
| 2026-05-08 16:19 | -15.43077 | -41.13581 | 11149 ft | 158 kts | 4° |
| 2026-05-08 16:19 | -15.41975 | -41.13553 | 11151 ft | 158 kts | 4° |
| 2026-05-08 16:20 | -15.40872 | -41.13526 | 11152 ft | 158 kts | 5° |
| 2026-05-08 16:20 | -15.39770 | -41.13500 | 11162 ft | 158 kts | 5° |
| 2026-05-08 16:20 | -15.38667 | -41.13473 | 11164 ft | 158 kts | 4° |
| 2026-05-08 16:20 | -15.37562 | -41.13446 | 11164 ft | 158 kts | 5° |
| 2026-05-08 16:21 | -15.36460 | -41.13419 | 11164 ft | 158 kts | 4° |
| 2026-05-08 16:21 | -15.35360 | -41.13392 | 11166 ft | 158 kts | 4° |
| 2026-05-08 16:21 | -15.34257 | -41.13365 | 11166 ft | 158 kts | 4° |
| 2026-05-08 16:21 | -15.33154 | -41.13338 | 11163 ft | 158 kts | 4° |
| 2026-05-08 16:22 | -15.32052 | -41.13311 | 11162 ft | 158 kts | 4° |
| 2026-05-08 16:22 | -15.30948 | -41.13284 | 11165 ft | 158 kts | 5° |
| 2026-05-08 16:22 | -15.29842 | -41.13257 | 11166 ft | 158 kts | 4° |
| 2026-05-08 16:22 | -15.28736 | -41.13230 | 11168 ft | 158 kts | 5° |
| 2026-05-08 16:23 | -15.27630 | -41.13203 | 11168 ft | 159 kts | 4° |
| 2026-05-08 16:23 | -15.26521 | -41.13176 | 11170 ft | 159 kts | 5° |
| 2026-05-08 16:23 | -15.25412 | -41.13149 | 11172 ft | 159 kts | 5° |
| 2026-05-08 16:23 | -15.24303 | -41.13122 | 11176 ft | 158 kts | 4° |
| 2026-05-08 16:24 | -15.23196 | -41.13095 | 11174 ft | 158 kts | 4° |
| 2026-05-08 16:24 | -15.22089 | -41.13068 | 11176 ft | 158 kts | 5° |
| 2026-05-08 16:24 | -15.20980 | -41.13041 | 11173 ft | 158 kts | 4° |
| 2026-05-08 16:24 | -15.19874 | -41.13014 | 11174 ft | 158 kts | 4° |
| 2026-05-08 16:25 | -15.18768 | -41.12987 | 11176 ft | 158 kts | 4° |
| 2026-05-08 16:25 | -15.17659 | -41.12960 | 11179 ft | 159 kts | 4° |
| 2026-05-08 16:25 | -15.16547 | -41.12933 | 11146 ft | 161 kts | 4° |
| 2026-05-08 16:25 | -15.15399 | -41.12905 | 11029 ft | 167 kts | 4° |
| 2026-05-08 16:26 | -15.14219 | -41.12876 | 10919 ft | 170 kts | 4° |
| 2026-05-08 16:26 | -15.13007 | -41.12846 | 10722 ft | 178 kts | 4° |
| 2026-05-08 16:26 | -15.11751 | -41.12816 | 10518 ft | 182 kts | 4° |
| 2026-05-08 16:26 | -15.10469 | -41.12785 | 10322 ft | 185 kts | 3° |
| 2026-05-08 16:27 | -15.09172 | -41.12753 | 10129 ft | 186 kts | 4° |
| 2026-05-08 16:27 | -15.07870 | -41.12722 | 9934 ft | 187 kts | 3° |
| 2026-05-08 16:27 | -15.06562 | -41.12690 | 9738 ft | 187 kts | 3° |
| 2026-05-08 16:27 | -15.05257 | -41.12658 | 9546 ft | 187 kts | 3° |
| 2026-05-08 16:28 | -15.03952 | -41.12627 | 9360 ft | 187 kts | 4° |
| 2026-05-08 16:28 | -15.02645 | -41.12595 | 9171 ft | 187 kts | 4° |
| 2026-05-08 16:28 | -15.01353 | -41.12563 | 8980 ft | 184 kts | 4° |
| 2026-05-08 16:28 | -15.00076 | -41.12532 | 8784 ft | 182 kts | 5° |
| 2026-05-08 16:29 | -14.98813 | -41.12502 | 8582 ft | 181 kts | 4° |
| 2026-05-08 16:29 | -14.97550 | -41.12471 | 8380 ft | 180 kts | 4° |
| 2026-05-08 16:29 | -14.96293 | -41.12440 | 8176 ft | 180 kts | 4° |
| 2026-05-08 16:29 | -14.95043 | -41.12410 | 7983 ft | 179 kts | 5° |
| 2026-05-08 16:30 | -14.93797 | -41.12380 | 7787 ft | 178 kts | 4° |
| 2026-05-08 16:30 | -14.92555 | -41.12350 | 7588 ft | 178 kts | 4° |
| 2026-05-08 16:30 | -14.91314 | -41.12319 | 7389 ft | 177 kts | 5° |
| 2026-05-08 16:30 | -14.90079 | -41.12289 | 7190 ft | 177 kts | 5° |
| 2026-05-08 16:31 | -14.88844 | -41.12229 | 6986 ft | 175 kts | 15° |
| 2026-05-08 16:31 | -14.87892 | -41.11715 | 7299 ft | 141 kts | 34° |
| 2026-05-08 16:31 | -14.86989 | -41.11115 | 6834 ft | 166 kts | 37° |
| 2026-05-08 16:31 | -14.86016 | -41.10417 | 6384 ft | 170 kts | 38° |
| 2026-05-08 16:32 | -14.85085 | -41.09727 | 5975 ft | 161 kts | 39° |
| 2026-05-08 16:32 | -14.84203 | -41.09066 | 5606 ft | 152 kts | 39° |
| 2026-05-08 16:32 | -14.83368 | -41.08437 | 5276 ft | 145 kts | 40° |
| 2026-05-08 16:32 | -14.82572 | -41.07838 | 4962 ft | 137 kts | 41° |
| 2026-05-08 16:33 | -14.81827 | -41.07276 | 4682 ft | 128 kts | 40° |
| 2026-05-08 16:33 | -14.81173 | -41.06743 | 4543 ft | 108 kts | 56° |
| 2026-05-08 16:33 | -14.81025 | -41.06107 | 4535 ft | 87 kts | 101° |
| 2026-05-08 16:33 | -14.81187 | -41.05533 | 4581 ft | 87 kts | 106° |
| 2026-05-08 16:34 | -14.81442 | -41.04934 | 4559 ft | 93 kts | 112° |
| 2026-05-08 16:34 | -14.81750 | -41.04359 | 4546 ft | 88 kts | 114° |
| 2026-05-08 16:34 | -14.82067 | -41.03834 | 4563 ft | 83 kts | 116° |
| 2026-05-08 16:34 | -14.82381 | -41.03346 | 4563 ft | 80 kts | 117° |
| 2026-05-08 16:35 | -14.82704 | -41.02863 | 4584 ft | 83 kts | 119° |
| 2026-05-08 16:35 | -14.83056 | -41.02349 | 4573 ft | 91 kts | 120° |
| 2026-05-08 16:35 | -14.83434 | -41.01808 | 4563 ft | 94 kts | 120° |
| 2026-05-08 16:35 | -14.83825 | -41.01256 | 4554 ft | 95 kts | 121° |
| 2026-05-08 16:36 | -14.84216 | -41.00703 | 4552 ft | 95 kts | 121° |
| 2026-05-08 16:36 | -14.84607 | -41.00152 | 4564 ft | 94 kts | 119° |
| 2026-05-08 16:36 | -14.84986 | -40.99620 | 4541 ft | 89 kts | 119° |
| 2026-05-08 16:36 | -14.85352 | -40.99106 | 4461 ft | 90 kts | 122° |
| 2026-05-08 16:37 | -14.85736 | -40.98601 | 4391 ft | 88 kts | 121° |
| 2026-05-08 16:37 | -14.86106 | -40.98093 | 4310 ft | 89 kts | 122° |
| 2026-05-08 16:37 | -14.86463 | -40.97562 | 4189 ft | 90 kts | 119° |
| 2026-05-08 16:37 | -14.86847 | -40.97035 | 4075 ft | 92 kts | 121° |
| 2026-05-08 16:38 | -14.87227 | -40.96505 | 3956 ft | 92 kts | 122° |
| 2026-05-08 16:38 | -14.87617 | -40.95982 | 3812 ft | 92 kts | 121° |
| 2026-05-08 16:38 | -14.87983 | -40.95454 | 3699 ft | 89 kts | 118° |
| 2026-05-08 16:38 | -14.88341 | -40.94943 | 3591 ft | 85 kts | 122° |
| 2026-05-08 16:39 | -14.88681 | -40.94447 | 3475 ft | 84 kts | 120° |
| 2026-05-08 16:39 | -14.89030 | -40.93958 | 3349 ft | 85 kts | 122° |
| 2026-05-08 16:39 | -14.89379 | -40.93467 | 3243 ft | 84 kts | 121° |
| 2026-05-08 16:39 | -14.89725 | -40.92969 | 3127 ft | 87 kts | 121° |
| 2026-05-08 16:40 | -14.90087 | -40.92463 | 3004 ft | 86 kts | 120° |
| 2026-05-08 16:40 | -14.90413 | -40.92002 | 2932 ft | 67 kts | 120° |
| 2026-05-08 16:40 | -14.90637 | -40.91675 | 2929 ft | 43 kts | 135° |
| 2026-05-08 16:40 | -14.90770 | -40.91660 | 2929 ft | 14 kts | 220° |
| 2026-05-08 16:41 | -14.90823 | -40.91690 | 2929 ft | 0 kts | 200° |